Clearfield, Iowa
Current Conditions -  °F | °C
As of 6:15 PM on Friday 24 Oct 2014 (Local Time) from KCSQ Reporting Station
Clear Clear  
Wind Chill: 68°   Ceiling: Unl
Heat Index: 68°   Visibility: 10mi
Dew Point: 63°   Wind: 6mph
Humidity: 83%   Direction: 220°SW
Pressure: 29.92"   Gusts: NA
Location:  40.8°N, 94.48°W
Report Text: KCSQ 242315Z AUTO 22005KT 10SM CLR 20/17 A2992 RMK AO2
Loading
Personal Weather Stations






























Interactive Weather Map New forecast layout! Learn more

10-Day Weather Forecast

Advertisements
Track Severe Weather on mobile